sensor_id;sensor_type;location;lat;lon;timestamp;temperature;humidity
6270;DHT22;3168;51.684;6.954;2023-08-07T00:01:33;13.50;99.90
6270;DHT22;3168;51.684;6.954;2023-08-07T00:03:59;13.60;99.90
6270;DHT22;3168;51.684;6.954;2023-08-07T00:06:24;13.50;99.90
6270;DHT22;3168;51.684;6.954;2023-08-07T00:08:50;13.60;99.90
6270;DHT22;3168;51.684;6.954;2023-08-07T00:11:16;13.60;99.90
6270;DHT22;3168;51.684;6.954;2023-08-07T00:13:42;13.50;99.90
6270;DHT22;3168;51.684;6.954;2023-08-07T00:16:08;13.50;99.90
6270;DHT22;3168;51.684;6.954;2023-08-07T00:18:34;13.50;99.90
6270;DHT22;3168;51.684;6.954;2023-08-07T00:21:00;13.50;99.90
6270;DHT22;3168;51.684;6.954;2023-08-07T00:23:25;13.50;99.90
6270;DHT22;3168;51.684;6.954;2023-08-07T00:25:51;13.50;99.90
6270;DHT22;3168;51.684;6.954;2023-08-07T00:28:17;13.50;99.90
6270;DHT22;3168;51.684;6.954;2023-08-07T00:30:43;13.50;99.90
6270;DHT22;3168;51.684;6.954;2023-08-07T00:33:08;13.40;99.90
6270;DHT22;3168;51.684;6.954;2023-08-07T00:35:34;13.50;99.90
6270;DHT22;3168;51.684;6.954;2023-08-07T00:38:00;13.50;99.90
6270;DHT22;3168;51.684;6.954;2023-08-07T00:40:26;13.40;99.90
6270;DHT22;3168;51.684;6.954;2023-08-07T00:42:51;13.40;99.90
6270;DHT22;3168;51.684;6.954;2023-08-07T00:45:17;13.40;99.90
6270;DHT22;3168;51.684;6.954;2023-08-07T00:47:43;13.40;99.90
6270;DHT22;3168;51.684;6.954;2023-08-07T00:50:09;13.40;99.90
6270;DHT22;3168;51.684;6.954;2023-08-07T00:52:35;13.40;99.90
6270;DHT22;3168;51.684;6.954;2023-08-07T00:55:00;13.40;99.90
6270;DHT22;3168;51.684;6.954;2023-08-07T00:57:27;13.40;99.90
6270;DHT22;3168;51.684;6.954;2023-08-07T00:59:53;13.40;99.90
6270;DHT22;3168;51.684;6.954;2023-08-07T01:02:19;13.30;99.90
6270;DHT22;3168;51.684;6.954;2023-08-07T01:04:46;13.30;99.90
6270;DHT22;3168;51.684;6.954;2023-08-07T01:07:11;13.30;99.90
6270;DHT22;3168;51.684;6.954;2023-08-07T01:09:38;13.30;99.90
6270;DHT22;3168;51.684;6.954;2023-08-07T01:12:14;13.20;99.90
6270;DHT22;3168;51.684;6.954;2023-08-07T01:14:40;13.20;99.90
6270;DHT22;3168;51.684;6.954;2023-08-07T01:17:09;13.20;99.90
6270;DHT22;3168;51.684;6.954;2023-08-07T01:19:34;13.20;99.90
6270;DHT22;3168;51.684;6.954;2023-08-07T01:22:12;13.20;99.90
6270;DHT22;3168;51.684;6.954;2023-08-07T01:24:39;13.10;99.90
6270;DHT22;3168;51.684;6.954;2023-08-07T01:30:03;13.10;99.90
6270;DHT22;3168;51.684;6.954;2023-08-07T01:32:34;13.10;99.90
6270;DHT22;3168;51.684;6.954;2023-08-07T01:34:59;13.10;99.90
6270;DHT22;3168;51.684;6.954;2023-08-07T01:37:25;13.10;99.90
6270;DHT22;3168;51.684;6.954;2023-08-07T01:39:50;13.10;99.90
6270;DHT22;3168;51.684;6.954;2023-08-07T01:42:16;13.10;99.90
6270;DHT22;3168;51.684;6.954;2023-08-07T01:44:42;13.10;99.90
6270;DHT22;3168;51.684;6.954;2023-08-07T01:47:08;13.10;99.90
6270;DHT22;3168;51.684;6.954;2023-08-07T01:49:34;13.10;99.90
6270;DHT22;3168;51.684;6.954;2023-08-07T01:51:59;13.10;99.90
6270;DHT22;3168;51.684;6.954;2023-08-07T01:54:25;13.10;99.90
6270;DHT22;3168;51.684;6.954;2023-08-07T01:56:51;13.10;99.90
6270;DHT22;3168;51.684;6.954;2023-08-07T01:59:17;13.10;99.90
6270;DHT22;3168;51.684;6.954;2023-08-07T02:01:43;13.00;99.90
6270;DHT22;3168;51.684;6.954;2023-08-07T02:04:09;13.10;99.90
6270;DHT22;3168;51.684;6.954;2023-08-07T02:06:35;13.10;99.90
6270;DHT22;3168;51.684;6.954;2023-08-07T02:09:00;13.10;99.90
6270;DHT22;3168;51.684;6.954;2023-08-07T02:11:26;13.10;99.90
6270;DHT22;3168;51.684;6.954;2023-08-07T02:13:52;13.10;99.90
6270;DHT22;3168;51.684;6.954;2023-08-07T02:16:18;13.10;99.90
6270;DHT22;3168;51.684;6.954;2023-08-07T02:18:44;13.20;99.90
6270;DHT22;3168;51.684;6.954;2023-08-07T02:21:09;13.10;99.90
6270;DHT22;3168;51.684;6.954;2023-08-07T02:23:36;13.20;99.90
6270;DHT22;3168;51.684;6.954;2023-08-07T02:26:02;13.20;99.90
6270;DHT22;3168;51.684;6.954;2023-08-07T02:28:28;13.20;99.90
6270;DHT22;3168;51.684;6.954;2023-08-07T02:30:53;13.20;99.90
6270;DHT22;3168;51.684;6.954;2023-08-07T02:33:20;13.20;99.90
6270;DHT22;3168;51.684;6.954;2023-08-07T02:35:46;13.20;99.90
6270;DHT22;3168;51.684;6.954;2023-08-07T02:38:11;13.20;99.90
6270;DHT22;3168;51.684;6.954;2023-08-07T02:40:37;13.20;99.90
6270;DHT22;3168;51.684;6.954;2023-08-07T02:43:03;13.20;99.90
6270;DHT22;3168;51.684;6.954;2023-08-07T02:45:29;13.20;99.90
6270;DHT22;3168;51.684;6.954;2023-08-07T02:47:55;13.20;99.90
6270;DHT22;3168;51.684;6.954;2023-08-07T02:50:21;13.20;99.90
6270;DHT22;3168;51.684;6.954;2023-08-07T02:52:46;13.20;99.90
6270;DHT22;3168;51.684;6.954;2023-08-07T02:55:12;13.10;99.90
6270;DHT22;3168;51.684;6.954;2023-08-07T02:57:38;13.10;99.90
6270;DHT22;3168;51.684;6.954;2023-08-07T03:00:05;13.10;99.90
6270;DHT22;3168;51.684;6.954;2023-08-07T03:02:31;13.00;99.90
6270;DHT22;3168;51.684;6.954;2023-08-07T03:04:57;13.10;99.90
6270;DHT22;3168;51.684;6.954;2023-08-07T03:07:22;13.10;99.90
6270;DHT22;3168;51.684;6.954;2023-08-07T03:09:48;13.10;99.90
6270;DHT22;3168;51.684;6.954;2023-08-07T03:12:14;13.00;99.90
6270;DHT22;3168;51.684;6.954;2023-08-07T03:14:40;13.00;99.90
6270;DHT22;3168;51.684;6.954;2023-08-07T03:17:06;13.00;99.90
6270;DHT22;3168;51.684;6.954;2023-08-07T03:19:31;13.00;99.90
6270;DHT22;3168;51.684;6.954;2023-08-07T03:21:57;13.10;99.90
6270;DHT22;3168;51.684;6.954;2023-08-07T03:24:24;13.00;99.90
6270;DHT22;3168;51.684;6.954;2023-08-07T03:26:50;13.00;99.90
6270;DHT22;3168;51.684;6.954;2023-08-07T03:29:15;13.00;99.90
6270;DHT22;3168;51.684;6.954;2023-08-07T03:31:41;13.00;99.90
6270;DHT22;3168;51.684;6.954;2023-08-07T03:34:07;13.10;99.90
6270;DHT22;3168;51.684;6.954;2023-08-07T03:36:33;13.00;99.90
6270;DHT22;3168;51.684;6.954;2023-08-07T03:38:59;13.00;99.90
6270;DHT22;3168;51.684;6.954;2023-08-07T03:41:25;13.00;99.90
6270;DHT22;3168;51.684;6.954;2023-08-07T03:43:50;13.00;99.90
6270;DHT22;3168;51.684;6.954;2023-08-07T03:46:16;13.00;99.90
6270;DHT22;3168;51.684;6.954;2023-08-07T03:48:42;13.00;99.90
6270;DHT22;3168;51.684;6.954;2023-08-07T03:51:09;13.10;99.90
6270;DHT22;3168;51.684;6.954;2023-08-07T03:53:36;13.00;99.90
6270;DHT22;3168;51.684;6.954;2023-08-07T03:56:01;13.10;99.90
6270;DHT22;3168;51.684;6.954;2023-08-07T03:58:27;13.10;99.90
6270;DHT22;3168;51.684;6.954;2023-08-07T04:00:53;13.00;99.90
6270;DHT22;3168;51.684;6.954;2023-08-07T04:03:20;13.00;99.90
6270;DHT22;3168;51.684;6.954;2023-08-07T04:05:45;13.00;99.90
6270;DHT22;3168;51.684;6.954;2023-08-07T04:08:11;13.00;99.90
6270;DHT22;3168;51.684;6.954;2023-08-07T04:10:37;13.00;99.90
6270;DHT22;3168;51.684;6.954;2023-08-07T04:13:03;13.00;99.90
6270;DHT22;3168;51.684;6.954;2023-08-07T04:15:28;13.00;99.90
6270;DHT22;3168;51.684;6.954;2023-08-07T04:17:54;13.00;99.90
6270;DHT22;3168;51.684;6.954;2023-08-07T04:20:20;12.90;99.90
6270;DHT22;3168;51.684;6.954;2023-08-07T04:22:46;12.90;99.90
6270;DHT22;3168;51.684;6.954;2023-08-07T04:25:12;12.90;99.90
6270;DHT22;3168;51.684;6.954;2023-08-07T04:27:38;12.90;99.90
6270;DHT22;3168;51.684;6.954;2023-08-07T04:30:05;12.80;99.90
6270;DHT22;3168;51.684;6.954;2023-08-07T04:32:30;12.90;99.90
6270;DHT22;3168;51.684;6.954;2023-08-07T04:34:56;12.90;99.90
6270;DHT22;3168;51.684;6.954;2023-08-07T04:37:22;12.90;99.90
6270;DHT22;3168;51.684;6.954;2023-08-07T04:39:48;12.80;99.90
6270;DHT22;3168;51.684;6.954;2023-08-07T04:42:14;12.90;99.90
6270;DHT22;3168;51.684;6.954;2023-08-07T04:44:40;12.90;99.90
6270;DHT22;3168;51.684;6.954;2023-08-07T04:47:06;12.90;99.90
6270;DHT22;3168;51.684;6.954;2023-08-07T04:49:31;12.90;99.90
6270;DHT22;3168;51.684;6.954;2023-08-07T04:51:57;12.90;99.90
6270;DHT22;3168;51.684;6.954;2023-08-07T04:54:23;12.90;99.90
6270;DHT22;3168;51.684;6.954;2023-08-07T04:56:49;12.90;99.90
6270;DHT22;3168;51.684;6.954;2023-08-07T04:59:15;12.80;99.90
6270;DHT22;3168;51.684;6.954;2023-08-07T05:01:41;12.90;99.90
6270;DHT22;3168;51.684;6.954;2023-08-07T05:04:07;12.80;99.90
6270;DHT22;3168;51.684;6.954;2023-08-07T05:06:32;12.80;99.90
6270;DHT22;3168;51.684;6.954;2023-08-07T05:08:58;12.80;99.90
6270;DHT22;3168;51.684;6.954;2023-08-07T05:11:25;12.80;99.90
6270;DHT22;3168;51.684;6.954;2023-08-07T05:13:51;12.90;99.90
6270;DHT22;3168;51.684;6.954;2023-08-07T05:16:16;12.80;99.90
6270;DHT22;3168;51.684;6.954;2023-08-07T05:18:42;12.80;99.90
6270;DHT22;3168;51.684;6.954;2023-08-07T05:21:08;12.90;99.90
6270;DHT22;3168;51.684;6.954;2023-08-07T05:23:34;12.80;99.90
6270;DHT22;3168;51.684;6.954;2023-08-07T05:26:00;12.80;99.90
6270;DHT22;3168;51.684;6.954;2023-08-07T05:28:26;12.80;99.90
6270;DHT22;3168;51.684;6.954;2023-08-07T05:30:52;12.90;99.90
6270;DHT22;3168;51.684;6.954;2023-08-07T05:33:18;12.80;99.90
6270;DHT22;3168;51.684;6.954;2023-08-07T05:35:44;12.80;99.90
6270;DHT22;3168;51.684;6.954;2023-08-07T05:38:10;12.90;99.90
6270;DHT22;3168;51.684;6.954;2023-08-07T05:40:35;12.90;99.90
6270;DHT22;3168;51.684;6.954;2023-08-07T05:43:02;12.80;99.90
6270;DHT22;3168;51.684;6.954;2023-08-07T05:45:27;12.90;99.90
6270;DHT22;3168;51.684;6.954;2023-08-07T05:47:53;12.90;99.90
6270;DHT22;3168;51.684;6.954;2023-08-07T05:50:19;12.90;99.90
6270;DHT22;3168;51.684;6.954;2023-08-07T05:52:45;12.90;99.90
6270;DHT22;3168;51.684;6.954;2023-08-07T05:55:11;13.00;99.90
6270;DHT22;3168;51.684;6.954;2023-08-07T05:57:36;13.00;99.90
6270;DHT22;3168;51.684;6.954;2023-08-07T06:00:03;13.00;99.90
6270;DHT22;3168;51.684;6.954;2023-08-07T06:02:29;13.10;99.90
6270;DHT22;3168;51.684;6.954;2023-08-07T06:04:54;13.10;99.90
6270;DHT22;3168;51.684;6.954;2023-08-07T06:07:21;13.20;99.90
6270;DHT22;3168;51.684;6.954;2023-08-07T06:09:47;13.20;99.90
6270;DHT22;3168;51.684;6.954;2023-08-07T06:12:13;13.20;99.90
6270;DHT22;3168;51.684;6.954;2023-08-07T06:14:39;13.20;99.90
6270;DHT22;3168;51.684;6.954;2023-08-07T06:17:05;13.20;99.90
6270;DHT22;3168;51.684;6.954;2023-08-07T06:19:31;13.20;99.90
6270;DHT22;3168;51.684;6.954;2023-08-07T06:21:56;13.30;99.90
6270;DHT22;3168;51.684;6.954;2023-08-07T06:24:22;13.30;99.90
6270;DHT22;3168;51.684;6.954;2023-08-07T06:26:49;13.30;99.90
6270;DHT22;3168;51.684;6.954;2023-08-07T06:29:14;13.40;99.90
6270;DHT22;3168;51.684;6.954;2023-08-07T06:31:40;13.40;99.90
6270;DHT22;3168;51.684;6.954;2023-08-07T06:34:05;13.40;99.90
6270;DHT22;3168;51.684;6.954;2023-08-07T06:36:31;13.40;99.90
6270;DHT22;3168;51.684;6.954;2023-08-07T06:38:57;13.40;99.90
6270;DHT22;3168;51.684;6.954;2023-08-07T06:41:23;13.40;99.90
6270;DHT22;3168;51.684;6.954;2023-08-07T06:43:49;13.40;99.90
6270;DHT22;3168;51.684;6.954;2023-08-07T06:46:14;13.40;99.90
6270;DHT22;3168;51.684;6.954;2023-08-07T07:02:49;13.40;99.90
6270;DHT22;3168;51.684;6.954;2023-08-07T07:05:15;13.50;99.90
6270;DHT22;3168;51.684;6.954;2023-08-07T07:07:41;13.50;99.90
6270;DHT22;3168;51.684;6.954;2023-08-07T07:10:07;13.50;99.90
6270;DHT22;3168;51.684;6.954;2023-08-07T07:12:33;13.50;99.90
6270;DHT22;3168;51.684;6.954;2023-08-07T07:14:59;13.50;99.90
6270;DHT22;3168;51.684;6.954;2023-08-07T07:17:24;13.50;99.90
6270;DHT22;3168;51.684;6.954;2023-08-07T21:44:22;14.00;1.00
6270;DHT22;3168;51.684;6.954;2023-08-07T21:46:48;14.10;1.00
6270;DHT22;3168;51.684;6.954;2023-08-07T21:49:14;14.10;1.00
6270;DHT22;3168;51.684;6.954;2023-08-07T21:51:40;14.10;1.00
6270;DHT22;3168;51.684;6.954;2023-08-07T21:54:06;14.10;1.00
6270;DHT22;3168;51.684;6.954;2023-08-07T21:56:32;14.10;1.00
6270;DHT22;3168;51.684;6.954;2023-08-07T21:58:57;14.10;1.00
6270;DHT22;3168;51.684;6.954;2023-08-07T22:01:23;14.20;1.00
6270;DHT22;3168;51.684;6.954;2023-08-07T22:03:49;14.20;1.00
6270;DHT22;3168;51.684;6.954;2023-08-07T22:06:15;14.20;1.00
6270;DHT22;3168;51.684;6.954;2023-08-07T22:08:41;14.20;1.00
6270;DHT22;3168;51.684;6.954;2023-08-07T22:11:26;14.20;1.00
6270;DHT22;3168;51.684;6.954;2023-08-07T22:14:24;14.30;1.00
6270;DHT22;3168;51.684;6.954;2023-08-07T22:16:50;14.40;1.00
6270;DHT22;3168;51.684;6.954;2023-08-07T22:19:16;14.40;1.00
6270;DHT22;3168;51.684;6.954;2023-08-07T22:21:42;14.40;1.00
6270;DHT22;3168;51.684;6.954;2023-08-07T22:24:08;14.40;1.00
6270;DHT22;3168;51.684;6.954;2023-08-07T22:26:34;14.50;1.00
6270;DHT22;3168;51.684;6.954;2023-08-07T22:29:00;14.50;1.00
6270;DHT22;3168;51.684;6.954;2023-08-07T22:31:26;14.60;1.00
6270;DHT22;3168;51.684;6.954;2023-08-07T22:33:52;14.60;1.00
6270;DHT22;3168;51.684;6.954;2023-08-07T22:36:18;14.60;1.00
6270;DHT22;3168;51.684;6.954;2023-08-07T22:38:44;14.50;1.00
6270;DHT22;3168;51.684;6.954;2023-08-07T22:41:10;14.60;1.00
6270;DHT22;3168;51.684;6.954;2023-08-07T22:43:36;14.60;1.00
6270;DHT22;3168;51.684;6.954;2023-08-07T22:46:02;14.70;1.00
6270;DHT22;3168;51.684;6.954;2023-08-07T22:48:28;14.70;1.00
6270;DHT22;3168;51.684;6.954;2023-08-07T22:50:53;14.70;1.00
6270;DHT22;3168;51.684;6.954;2023-08-07T22:53:19;14.80;1.00
6270;DHT22;3168;51.684;6.954;2023-08-07T22:55:46;14.80;1.00
6270;DHT22;3168;51.684;6.954;2023-08-07T22:58:12;14.80;1.00
6270;DHT22;3168;51.684;6.954;2023-08-07T23:00:38;14.80;1.00
6270;DHT22;3168;51.684;6.954;2023-08-07T23:03:04;14.80;1.00
6270;DHT22;3168;51.684;6.954;2023-08-07T23:05:30;14.70;1.00
6270;DHT22;3168;51.684;6.954;2023-08-07T23:07:57;14.70;1.00
6270;DHT22;3168;51.684;6.954;2023-08-07T23:10:22;14.80;1.00
6270;DHT22;3168;51.684;6.954;2023-08-07T23:12:49;14.80;1.00
6270;DHT22;3168;51.684;6.954;2023-08-07T23:15:15;14.80;1.00
6270;DHT22;3168;51.684;6.954;2023-08-07T23:17:41;14.90;1.00
6270;DHT22;3168;51.684;6.954;2023-08-07T23:20:07;14.80;1.00
6270;DHT22;3168;51.684;6.954;2023-08-07T23:22:33;14.80;1.00
6270;DHT22;3168;51.684;6.954;2023-08-07T23:24:59;14.70;1.00
6270;DHT22;3168;51.684;6.954;2023-08-07T23:27:25;14.80;1.00
6270;DHT22;3168;51.684;6.954;2023-08-07T23:29:51;14.80;1.00
6270;DHT22;3168;51.684;6.954;2023-08-07T23:32:17;14.90;1.00
6270;DHT22;3168;51.684;6.954;2023-08-07T23:34:43;14.90;1.00
6270;DHT22;3168;51.684;6.954;2023-08-07T23:37:09;14.90;1.00
6270;DHT22;3168;51.684;6.954;2023-08-07T23:39:35;14.80;1.00
6270;DHT22;3168;51.684;6.954;2023-08-07T23:42:01;14.80;1.00
6270;DHT22;3168;51.684;6.954;2023-08-07T23:44:28;14.90;1.00
6270;DHT22;3168;51.684;6.954;2023-08-07T23:46:54;14.80;1.00
6270;DHT22;3168;51.684;6.954;2023-08-07T23:49:20;14.80;1.00
6270;DHT22;3168;51.684;6.954;2023-08-07T23:51:46;14.90;1.00
6270;DHT22;3168;51.684;6.954;2023-08-07T23:54:12;14.90;1.00
6270;DHT22;3168;51.684;6.954;2023-08-07T23:56:38;14.90;1.00
6270;DHT22;3168;51.684;6.954;2023-08-07T23:59:03;14.80;1.00
